createdAt,value
2022-12-11T00:02:09.385Z,99461.34
2022-12-11T00:04:22.827Z,99464.85
2022-12-11T00:06:37.120Z,99463.16
2022-12-11T00:08:51.752Z,99466.16
2022-12-11T00:11:05.159Z,99464.39
2022-12-11T00:13:18.627Z,99462.33
2022-12-11T00:15:32.190Z,99464.94
2022-12-11T00:17:45.603Z,99465.41
2022-12-11T00:19:59.038Z,99469.23
2022-12-11T00:22:12.440Z,99471.17
2022-12-11T00:24:25.943Z,99482.52
2022-12-11T00:26:39.283Z,99485.09
2022-12-11T00:28:56.221Z,99493.80
2022-12-11T00:31:13.763Z,99497.83
2022-12-11T00:33:29.784Z,99500.07
2022-12-11T00:35:44.418Z,99505.89
2022-12-11T00:37:57.770Z,99513.91
2022-12-11T00:40:12.277Z,99522.17
2022-12-11T00:42:25.778Z,99524.16
2022-12-11T00:44:39.376Z,99529.61
2022-12-11T00:46:53.396Z,99538.02
2022-12-11T00:49:06.619Z,99539.81
2022-12-11T00:51:20.046Z,99537.70
2022-12-11T00:53:33.689Z,99544.55
2022-12-11T00:55:47.962Z,99548.08
2022-12-11T00:58:01.434Z,99556.34
2022-12-11T01:00:16.642Z,99559.86
2022-12-11T01:02:29.977Z,99555.86
2022-12-11T01:04:43.767Z,99556.84
2022-12-11T01:06:57.045Z,99559.50
2022-12-11T01:09:32.390Z,99559.83
2022-12-11T01:11:46.699Z,99559.30
2022-12-11T01:14:00.505Z,99563.66
2022-12-11T01:16:20.544Z,99569.13
2022-12-11T01:18:33.896Z,99571.20
2022-12-11T01:20:47.685Z,99574.78
2022-12-11T01:23:03.433Z,99578.06
2022-12-11T01:25:17.939Z,99580.23
2022-12-11T01:27:31.265Z,99583.34
2022-12-11T01:29:44.921Z,99586.91
2022-12-11T01:31:58.203Z,99588.16
2022-12-11T01:34:11.691Z,99589.11
2022-12-11T01:36:26.158Z,99594.20
2022-12-11T01:38:39.503Z,99596.42
2022-12-11T01:40:54.891Z,99601.52
2022-12-11T01:43:08.116Z,99605.13
2022-12-11T01:45:39.891Z,99600.45
2022-12-11T01:47:53.413Z,99603.53
2022-12-11T01:50:06.967Z,99604.01
2022-12-11T01:52:23.311Z,99608.80
2022-12-11T01:54:37.635Z,99612.13
2022-12-11T01:56:53.583Z,99616.58
2022-12-11T01:59:09.816Z,99619.61
2022-12-11T02:01:45.342Z,99620.71
2022-12-11T02:04:02.208Z,99624.20
2022-12-11T02:06:36.418Z,99626.61
2022-12-11T02:08:49.689Z,99626.98
2022-12-11T02:11:12.871Z,99632.13
2022-12-11T02:13:34.441Z,99636.20
2022-12-11T02:15:58.648Z,99640.48
2022-12-11T02:18:23.680Z,99640.91
2022-12-11T02:20:41.715Z,99647.48
2022-12-11T02:23:10.045Z,99650.52
2022-12-11T02:25:30.618Z,99654.10
2022-12-11T02:27:49.886Z,99657.38
2022-12-11T02:30:08.226Z,99658.27
2022-12-11T02:32:25.329Z,99659.89
2022-12-11T02:34:43.572Z,99659.23
2022-12-11T02:37:01.394Z,99663.77
2022-12-11T02:39:18.968Z,99665.77
2022-12-11T02:41:33.752Z,99669.73
2022-12-11T02:43:49.071Z,99665.91
2022-12-11T02:46:04.163Z,99671.17
2022-12-11T02:48:18.586Z,99672.94
2022-12-11T02:50:32.939Z,99678.00
2022-12-11T02:52:49.222Z,99678.02
2022-12-11T02:55:05.133Z,99681.22
2022-12-11T02:57:24.999Z,99683.27
2022-12-11T02:59:42.133Z,99684.48
2022-12-11T03:01:55.644Z,99684.42
2022-12-11T03:04:09.031Z,99682.50
2022-12-11T03:06:25.599Z,99679.32
2022-12-11T03:08:38.804Z,99682.55
2022-12-11T03:10:52.139Z,99685.67
2022-12-11T03:13:06.363Z,99684.22
2022-12-11T03:15:22.305Z,99687.83
2022-12-11T03:17:41.162Z,99690.75
2022-12-11T03:20:07.615Z,99694.90
2022-12-11T03:22:25.729Z,99698.65
2022-12-11T03:24:42.423Z,99705.57
2022-12-11T03:27:00.961Z,99704.43
2022-12-11T03:29:22.456Z,99707.84
2022-12-11T03:31:42.655Z,99711.16
2022-12-11T03:34:01.712Z,99711.41
2022-12-11T03:36:18.860Z,99710.84
2022-12-11T03:38:36.449Z,99714.64
2022-12-11T03:40:53.672Z,99722.04
2022-12-11T03:43:09.243Z,99719.89
2022-12-11T03:45:25.835Z,99725.81
2022-12-11T03:47:41.167Z,99731.95
2022-12-11T03:49:55.964Z,99733.89
2022-12-11T03:52:10.983Z,99734.64
2022-12-11T03:54:24.810Z,99733.52
2022-12-11T03:56:40.589Z,99736.75
2022-12-11T03:58:53.914Z,99734.98
2022-12-11T04:01:07.301Z,99733.23
2022-12-11T04:03:21.145Z,99727.85
2022-12-11T04:05:34.581Z,99724.64
2022-12-11T04:07:47.884Z,99734.26
2022-12-11T04:10:01.413Z,99740.59
2022-12-11T04:12:15.057Z,99743.75
2022-12-11T04:14:44.610Z,99747.66
2022-12-11T04:17:00.390Z,99748.64
2022-12-11T04:19:33.124Z,99755.95
2022-12-11T04:22:03.085Z,99757.94
2022-12-11T04:24:19.986Z,99759.27
2022-12-11T04:26:33.465Z,99763.04
2022-12-11T04:28:48.423Z,99761.35
2022-12-11T04:31:01.635Z,99765.59
2022-12-11T04:33:14.955Z,99768.17
2022-12-11T04:35:28.470Z,99769.36
2022-12-11T04:37:42.690Z,99774.64
2022-12-11T04:39:56.310Z,99778.79
2022-12-11T04:42:09.642Z,99784.02
2022-12-11T04:44:22.980Z,99784.79
2022-12-11T04:46:36.468Z,99787.89
2022-12-11T04:48:56.720Z,99790.17
2022-12-11T04:51:10.694Z,99792.87
2022-12-11T04:53:23.921Z,99794.60
2022-12-11T04:55:37.296Z,99797.92
2022-12-11T04:57:50.627Z,99802.46
2022-12-11T05:00:05.892Z,99806.54
2022-12-11T05:02:19.333Z,99806.81
2022-12-11T05:04:36.415Z,99812.06
2022-12-11T05:06:52.271Z,99817.45
2022-12-11T05:09:05.481Z,99817.70
2022-12-11T05:11:20.590Z,99817.65
2022-12-11T05:13:35.720Z,99817.95
2022-12-11T05:15:48.900Z,99819.64
2022-12-11T05:18:02.146Z,99823.01
2022-12-11T05:20:16.997Z,99825.44
2022-12-11T05:22:30.260Z,99830.61
2022-12-11T05:24:43.557Z,99835.75
2022-12-11T05:26:56.736Z,99833.95
2022-12-11T05:29:09.955Z,99836.75
2022-12-11T05:31:25.412Z,99843.71
2022-12-11T05:33:39.094Z,99846.67
2022-12-11T05:35:55.795Z,99853.38
2022-12-11T05:38:09.146Z,99854.85
2022-12-11T05:40:22.734Z,99856.94
2022-12-11T05:42:36.122Z,99860.64
2022-12-11T05:44:49.559Z,99865.52
2022-12-11T05:47:03.015Z,99867.80
2022-12-11T05:49:19.762Z,99874.98
2022-12-11T05:51:35.492Z,99874.42
2022-12-11T05:53:49.620Z,99883.01
2022-12-11T05:56:08.367Z,99885.62
2022-12-11T05:58:21.764Z,99891.72
2022-12-11T06:00:36.278Z,99896.31
2022-12-11T06:02:49.965Z,99902.84
2022-12-11T06:05:03.487Z,99903.32
2022-12-11T06:07:16.878Z,99911.74
2022-12-11T06:09:30.429Z,99910.82
2022-12-11T06:11:43.796Z,99914.11
2022-12-11T06:13:58.102Z,99918.60
2022-12-11T06:16:13.928Z,99920.16
2022-12-11T06:18:27.711Z,99922.90
2022-12-11T06:20:41.236Z,99927.10
2022-12-11T06:22:54.662Z,99933.24
2022-12-11T06:25:08.573Z,99934.69
2022-12-11T06:27:22.509Z,99938.86
2022-12-11T06:29:35.962Z,99943.70
2022-12-11T06:31:49.425Z,99942.98
2022-12-11T06:34:02.900Z,99946.42
2022-12-11T06:36:17.939Z,99950.50
2022-12-11T06:38:31.387Z,99959.28
2022-12-11T06:40:44.858Z,99963.45
2022-12-11T06:42:58.151Z,99964.33
2022-12-11T06:45:13.383Z,99968.02
2022-12-11T06:47:26.945Z,99969.28
2022-12-11T06:49:40.279Z,99975.33
2022-12-11T06:51:53.616Z,99980.12
2022-12-11T06:54:07.088Z,99985.30
2022-12-11T06:56:21.629Z,99990.81
2022-12-11T06:58:34.918Z,99990.34
2022-12-11T07:00:48.582Z,99994.56
2022-12-11T07:03:02.055Z,99998.88
2022-12-11T07:05:15.850Z,99998.79
2022-12-11T07:07:29.384Z,100003.64
2022-12-11T07:09:44.312Z,100008.09
2022-12-11T07:11:58.397Z,100010.05
2022-12-11T07:14:12.315Z,100016.34
2022-12-11T07:16:25.928Z,100018.77
2022-12-11T07:18:39.822Z,100019.73
2022-12-11T07:20:53.243Z,100019.01
2022-12-11T07:23:06.634Z,100026.14
2022-12-11T07:25:20.097Z,100026.09
2022-12-11T07:27:33.393Z,100026.25
2022-12-11T07:29:46.716Z,100027.47
2022-12-11T07:32:00.803Z,100033.58
2022-12-11T07:34:15.683Z,100034.25
2022-12-11T07:36:30.068Z,100036.92
2022-12-11T07:38:43.728Z,100038.46
2022-12-11T07:40:57.358Z,100034.75
2022-12-11T07:43:10.799Z,100038.45
2022-12-11T07:45:27.761Z,100033.81
2022-12-11T07:47:41.049Z,100036.64
2022-12-11T07:49:54.587Z,100037.48
2022-12-11T07:52:08.067Z,100040.91
2022-12-11T07:54:22.268Z,100040.39
2022-12-11T07:56:36.533Z,100043.95
2022-12-11T07:58:50.142Z,100044.98
2022-12-11T08:01:03.540Z,100047.31
2022-12-11T08:03:16.962Z,100053.86
2022-12-11T08:05:30.313Z,100058.63
2022-12-11T08:07:43.534Z,100060.27
2022-12-11T08:09:56.828Z,100060.52
2022-12-11T08:12:10.367Z,100059.85
2022-12-11T08:14:24.054Z,100062.17
2022-12-11T08:16:37.786Z,100059.31
2022-12-11T08:18:51.697Z,100059.60
2022-12-11T08:21:08.058Z,100060.42
2022-12-11T08:23:21.320Z,100061.77
2022-12-11T08:25:35.861Z,100060.08
2022-12-11T08:27:50.580Z,100060.78
2022-12-11T08:30:04.220Z,100063.83
2022-12-11T08:32:19.223Z,100063.20
2022-12-11T08:34:33.874Z,100065.85
2022-12-11T08:36:49.589Z,100066.98
2022-12-11T08:39:03.834Z,100064.56
2022-12-11T08:41:19.698Z,100064.75
2022-12-11T08:43:33.516Z,100067.87
2022-12-11T08:45:47.147Z,100070.55
2022-12-11T08:48:01.929Z,100072.80
2022-12-11T08:50:16.203Z,100080.05
2022-12-11T08:52:32.563Z,100081.89
2022-12-11T08:54:46.793Z,100084.27
2022-12-11T08:57:00.447Z,100085.11
2022-12-11T08:59:13.775Z,100088.53
2022-12-11T09:01:29.089Z,100095.77
2022-12-11T09:03:43.712Z,100099.30
2022-12-11T09:05:57.158Z,100100.47
2022-12-11T09:08:10.791Z,100102.02
2022-12-11T09:10:24.585Z,100102.89
2022-12-11T09:12:39.115Z,100103.54
2022-12-11T09:14:52.286Z,100105.67
2022-12-11T09:17:07.410Z,100106.81
2022-12-11T09:19:20.993Z,100115.49
2022-12-11T09:21:35.129Z,100117.73
2022-12-11T09:23:48.843Z,100122.66
2022-12-11T09:26:02.240Z,100127.76
2022-12-11T09:28:15.638Z,100129.34
2022-12-11T09:30:29.053Z,100129.40
2022-12-11T09:32:42.867Z,100132.32
2022-12-11T09:34:58.726Z,100136.80
2022-12-11T09:37:12.254Z,100136.48
2022-12-11T09:39:25.894Z,100133.15
2022-12-11T09:41:49.602Z,100135.50
2022-12-11T09:44:10.794Z,100138.55
2022-12-11T09:46:24.992Z,100135.15
2022-12-11T09:48:40.414Z,100133.55
2022-12-11T09:50:55.291Z,100134.84
2022-12-11T09:53:17.068Z,100132.56
2022-12-11T09:55:36.307Z,100136.35
2022-12-11T09:57:58.374Z,100137.40
2022-12-11T10:00:23.864Z,100138.75
2022-12-11T10:02:46.135Z,100143.34
2022-12-11T10:05:16.950Z,100143.52
2022-12-11T10:07:38.322Z,100146.36
2022-12-11T10:09:59.801Z,100148.14
2022-12-11T10:12:32.550Z,100147.96
2022-12-11T10:14:59.718Z,100155.23
2022-12-11T10:17:22.428Z,100168.73
2022-12-11T10:19:36.878Z,100174.58
2022-12-11T10:21:50.531Z,100184.46
2022-12-11T10:24:08.304Z,100188.81
2022-12-11T10:26:24.379Z,100191.17
2022-12-11T10:28:38.284Z,100194.69
2022-12-11T10:30:58.857Z,100194.65
2022-12-11T10:33:22.092Z,100195.48
2022-12-11T10:35:42.027Z,100197.77
2022-12-11T10:37:56.312Z,100202.83
2022-12-11T10:40:12.318Z,100206.50
2022-12-11T10:42:27.300Z,100210.31
2022-12-11T10:44:40.397Z,100209.48
2022-12-11T10:47:06.235Z,100207.73
2022-12-11T10:49:31.311Z,100206.33
2022-12-11T10:51:44.918Z,100207.27
2022-12-11T10:54:06.859Z,100206.19
2022-12-11T10:56:28.161Z,100209.45
2022-12-11T10:58:53.693Z,100217.48
2022-12-11T11:01:14.107Z,100221.88
2022-12-11T11:03:31.041Z,100222.98
2022-12-11T11:05:49.389Z,100220.90
2022-12-11T11:08:20.443Z,100224.58
2022-12-11T11:10:34.126Z,100230.40
2022-12-11T11:12:49.424Z,100234.36
2022-12-11T11:15:14.347Z,100238.23
2022-12-11T11:17:33.821Z,100237.34
2022-12-11T11:19:53.099Z,100240.46
2022-12-11T11:22:09.333Z,100239.89
2022-12-11T11:24:39.309Z,100239.70
2022-12-11T11:29:33.094Z,100242.40
2022-12-11T11:31:47.046Z,100245.38
2022-12-11T11:34:05.149Z,100250.44
2022-12-11T11:36:27.948Z,100253.29
2022-12-11T11:38:46.160Z,100251.28
2022-12-11T11:41:07.695Z,100251.73
2022-12-11T11:43:31.920Z,100249.22
2022-12-11T11:45:53.636Z,100249.55
2022-12-11T11:48:19.785Z,100258.81
2022-12-11T11:50:38.780Z,100263.95
2022-12-11T11:52:57.876Z,100270.64
2022-12-11T11:55:21.980Z,100275.98
2022-12-11T11:57:40.809Z,100276.67
2022-12-11T11:59:58.410Z,100279.95
2022-12-11T12:02:21.191Z,100281.80
2022-12-11T12:04:38.415Z,100285.88
2022-12-11T12:07:08.816Z,100286.73
2022-12-11T12:09:34.552Z,100285.84
2022-12-11T12:11:53.336Z,100284.66
2022-12-11T12:14:50.740Z,100286.80
2022-12-11T12:17:02.353Z,100287.88
2022-12-11T12:19:26.668Z,100289.33
2022-12-11T12:21:43.454Z,100294.23
2022-12-11T12:24:17.557Z,100294.71
2022-12-11T12:26:34.953Z,100291.98
2022-12-11T12:28:55.925Z,100294.51
2022-12-11T12:31:25.469Z,100296.38
2022-12-11T12:33:48.805Z,100294.70
2022-12-11T12:36:09.719Z,100300.33
2022-12-11T12:38:30.678Z,100300.00
2022-12-11T12:40:53.837Z,100298.73
2022-12-11T12:43:20.518Z,100300.79
2022-12-11T12:45:37.911Z,100300.18
2022-12-11T12:47:53.626Z,100299.61
2022-12-11T12:50:09.194Z,100301.78
2022-12-11T12:52:26.460Z,100299.80
2022-12-11T12:54:40.852Z,100302.22
2022-12-11T12:56:54.731Z,100307.27
2022-12-11T12:59:07.859Z,100311.95
2022-12-11T13:01:25.513Z,100318.46
2022-12-11T13:03:53.046Z,100319.34
2022-12-11T13:06:09.371Z,100321.39
2022-12-11T13:08:32.068Z,100323.63
2022-12-11T13:10:46.620Z,100326.39
2022-12-11T13:13:00.706Z,100323.61
2022-12-11T13:15:30.930Z,100325.95
2022-12-11T13:17:44.861Z,100329.73
2022-12-11T13:20:22.375Z,100335.66
2022-12-11T13:22:35.634Z,100341.39
2022-12-11T13:25:02.848Z,100342.29
2022-12-11T13:27:30.850Z,100344.81
2022-12-11T13:29:45.346Z,100345.48
2022-12-11T13:32:03.811Z,100346.46
2022-12-11T13:34:25.017Z,100348.15
2022-12-11T13:36:41.123Z,100353.13
2022-12-11T13:38:57.576Z,100354.82
2022-12-11T13:41:16.991Z,100359.36
2022-12-11T13:43:33.664Z,100366.31
2022-12-11T13:45:53.198Z,100369.46
2022-12-11T13:48:07.608Z,100378.87
2022-12-11T13:50:26.248Z,100379.98
2022-12-11T13:52:39.773Z,100385.45
2022-12-11T13:55:00.317Z,100389.71
2022-12-11T13:57:23.996Z,100393.64
2022-12-11T13:59:40.423Z,100401.97
2022-12-11T14:01:54.622Z,100400.35
2022-12-11T14:04:13.524Z,100405.33
2022-12-11T14:06:27.374Z,100409.58
2022-12-11T14:08:43.446Z,100417.67
2022-12-11T14:10:59.466Z,100419.98
2022-12-11T14:13:22.972Z,100424.45
2022-12-11T14:15:39.768Z,100429.29
2022-12-11T14:17:53.291Z,100433.98
2022-12-11T14:20:10.732Z,100438.52
2022-12-11T14:22:28.205Z,100442.45
2022-12-11T14:24:51.767Z,100440.23
2022-12-11T14:27:06.043Z,100438.41
2022-12-11T14:29:31.413Z,100442.75
2022-12-11T14:31:48.035Z,100442.84
2022-12-11T14:34:05.580Z,100445.23
2022-12-11T14:36:20.801Z,100448.89
2022-12-11T14:38:38.580Z,100451.88
2022-12-11T14:40:55.189Z,100450.08
2022-12-11T14:43:12.930Z,100452.33
2022-12-11T14:45:36.940Z,100455.85
2022-12-11T14:47:50.667Z,100457.05
2022-12-11T14:50:07.416Z,100457.35
2022-12-11T14:52:27.069Z,100462.27
2022-12-11T14:54:44.545Z,100462.80
2022-12-11T14:56:58.385Z,100473.09
2022-12-11T14:59:23.616Z,100482.11
2022-12-11T15:01:40.781Z,100490.44
2022-12-11T15:03:54.218Z,100489.45
2022-12-11T15:06:25.297Z,100493.86
2022-12-11T15:08:39.492Z,100493.16
2022-12-11T15:11:10.631Z,100494.64
2022-12-11T15:13:29.424Z,100497.02
2022-12-11T15:15:50.496Z,100494.92
2022-12-11T15:18:05.350Z,100498.52
2022-12-11T15:20:29.760Z,100500.08
2022-12-11T15:22:46.796Z,100498.59
2022-12-11T15:25:01.030Z,100498.21
2022-12-11T15:27:38.116Z,100500.98
2022-12-11T15:29:51.257Z,100505.17
2022-12-11T15:32:20.174Z,100507.52
2022-12-11T15:34:39.373Z,100510.73
2022-12-11T15:36:53.000Z,100509.66
2022-12-11T15:39:09.843Z,100508.20
2022-12-11T15:41:25.875Z,100505.88
2022-12-11T15:43:42.211Z,100509.58
2022-12-11T15:45:55.537Z,100511.83
2022-12-11T15:48:09.405Z,100511.45
2022-12-11T15:50:27.228Z,100512.48
2022-12-11T15:52:40.759Z,100514.36
2022-12-11T15:54:53.947Z,100512.84
2022-12-11T15:57:11.140Z,100515.77
2022-12-11T15:59:25.307Z,100514.53
2022-12-11T16:01:38.525Z,100513.61
2022-12-11T16:03:52.482Z,100510.64
2022-12-11T16:06:05.900Z,100508.41
2022-12-11T16:08:21.487Z,100516.05
2022-12-11T16:10:34.808Z,100520.56
2022-12-11T16:12:48.544Z,100518.61
2022-12-11T16:15:01.933Z,100521.59
2022-12-11T16:17:16.260Z,100529.29
2022-12-11T16:19:29.485Z,100536.66
2022-12-11T16:21:42.713Z,100541.20
2022-12-11T16:23:55.879Z,100543.39
2022-12-11T16:26:12.876Z,100547.55
2022-12-11T16:28:26.377Z,100549.92
2022-12-11T16:30:41.394Z,100551.86
2022-12-11T16:32:55.127Z,100554.45
2022-12-11T16:35:09.796Z,100561.15
2022-12-11T16:37:23.290Z,100565.90
2022-12-11T16:39:37.988Z,100568.19
2022-12-11T16:41:51.683Z,100567.91
2022-12-11T16:44:07.426Z,100566.08
2022-12-11T16:46:23.931Z,100566.41
2022-12-11T16:48:37.515Z,100572.21
2022-12-11T16:50:50.849Z,100580.66
2022-12-11T16:53:04.377Z,100585.05
2022-12-11T16:55:22.338Z,100587.31
2022-12-11T16:57:35.838Z,100586.20
2022-12-11T16:59:50.280Z,100585.88
2022-12-11T17:02:03.508Z,100591.91
2022-12-11T17:04:16.689Z,100598.15
2022-12-11T17:06:30.531Z,100601.71
2022-12-11T17:08:43.957Z,100605.99
2022-12-11T17:10:57.723Z,100609.92
2022-12-11T17:13:11.125Z,100614.10
2022-12-11T17:15:24.479Z,100616.33
2022-12-11T17:17:37.708Z,100619.54
2022-12-11T17:19:50.994Z,100620.32
2022-12-11T17:22:04.741Z,100620.93
2022-12-11T17:24:18.129Z,100623.52
2022-12-11T17:26:31.627Z,100632.23
2022-12-11T17:28:45.458Z,100635.50
2022-12-11T17:30:58.957Z,100642.52
2022-12-11T17:33:12.250Z,100646.03
2022-12-11T17:35:25.525Z,100652.17
2022-12-11T17:37:38.854Z,100652.13
2022-12-11T17:39:52.151Z,100652.54
2022-12-11T17:42:05.619Z,100653.44
2022-12-11T17:44:18.842Z,100654.37
2022-12-11T17:46:32.896Z,100656.42
2022-12-11T17:48:46.485Z,100656.69
2022-12-11T17:50:59.903Z,100660.50
2022-12-11T17:53:14.107Z,100662.92
2022-12-11T17:55:27.483Z,100665.83
2022-12-11T17:57:40.999Z,100665.80
2022-12-11T17:59:56.840Z,100668.64
2022-12-11T18:02:10.203Z,100673.05
2022-12-11T18:04:23.464Z,100673.14
2022-12-11T18:06:36.612Z,100674.46
2022-12-11T18:08:50.356Z,100681.75
2022-12-11T18:11:07.269Z,100679.34
2022-12-11T18:13:20.909Z,100677.78
2022-12-11T18:15:34.123Z,100681.95
2022-12-11T18:17:47.520Z,100686.05
2022-12-11T18:20:00.772Z,100688.75
2022-12-11T18:22:14.116Z,100692.09
2022-12-11T18:24:33.008Z,100692.52
2022-12-11T18:26:46.755Z,100689.55
2022-12-11T18:29:00.072Z,100690.83
2022-12-11T18:31:13.480Z,100691.96
2022-12-11T18:33:26.706Z,100690.75
2022-12-11T18:35:39.896Z,100692.02
2022-12-11T18:37:53.208Z,100690.23
2022-12-11T18:40:06.775Z,100683.54
2022-12-11T18:42:35.178Z,100687.29
2022-12-11T18:44:48.599Z,100689.89
2022-12-11T18:47:01.781Z,100693.54
2022-12-11T18:49:16.715Z,100693.27
2022-12-11T18:51:30.006Z,100695.45
2022-12-11T18:53:43.613Z,100696.48
2022-12-11T18:56:00.323Z,100697.77
2022-12-11T18:58:14.252Z,100699.98
2022-12-11T19:00:27.976Z,100700.50
2022-12-11T19:02:41.453Z,100701.66
2022-12-11T19:04:54.790Z,100701.19
2022-12-11T19:07:08.273Z,100702.32
2022-12-11T19:09:21.650Z,100699.17
2022-12-11T19:11:36.887Z,100697.77
2022-12-11T19:13:50.653Z,100700.59
2022-12-11T19:16:04.286Z,100703.41
2022-12-11T19:18:17.557Z,100703.59
2022-12-11T19:20:48.735Z,100701.48
2022-12-11T19:23:03.401Z,100695.32
2022-12-11T19:25:17.210Z,100695.98
2022-12-11T19:27:31.077Z,100694.27
2022-12-11T19:29:45.175Z,100693.37
2022-12-11T19:31:58.911Z,100695.55
2022-12-11T19:34:12.087Z,100696.32
2022-12-11T19:36:27.583Z,100695.45
2022-12-11T19:38:40.986Z,100693.71
2022-12-11T19:40:54.207Z,100694.81
2022-12-11T19:43:07.503Z,100695.65
2022-12-11T19:45:20.999Z,100696.63
2022-12-11T19:47:34.238Z,100700.08
2022-12-11T19:49:47.099Z,100702.75
2022-12-11T19:51:57.525Z,100704.59
2022-12-11T19:54:13.343Z,100710.13
2022-12-11T19:56:26.905Z,100706.45
2022-12-11T19:58:40.111Z,100709.38
2022-12-11T20:00:53.479Z,100707.35
2022-12-11T20:03:06.815Z,100705.67
2022-12-11T20:05:20.139Z,100706.35
2022-12-11T20:07:33.324Z,100703.96
2022-12-11T20:09:46.600Z,100703.09
2022-12-11T20:11:59.686Z,100704.64
2022-12-11T20:14:13.010Z,100703.30
2022-12-11T20:16:53.346Z,100703.34
2022-12-11T20:18:59.843Z,100706.77
2022-12-11T20:21:16.122Z,100705.95
2022-12-11T20:23:30.523Z,100708.64
2022-12-11T20:25:44.701Z,100712.35
2022-12-11T20:27:59.297Z,100712.64
2022-12-11T20:30:15.596Z,100711.98
2022-12-11T20:32:28.868Z,100714.66
2022-12-11T20:34:42.463Z,100720.52
2022-12-11T20:36:56.809Z,100722.27
2022-12-11T20:39:10.052Z,100723.98
2022-12-11T20:41:24.926Z,100727.55
2022-12-11T20:43:38.217Z,100731.09
2022-12-11T20:45:56.183Z,100732.19
2022-12-11T20:48:09.920Z,100731.45
2022-12-11T20:50:23.867Z,100730.61
2022-12-11T20:52:37.976Z,100732.85
2022-12-11T20:54:51.392Z,100733.86
2022-12-11T20:57:04.925Z,100731.80
2022-12-11T20:59:18.378Z,100729.58
2022-12-11T21:01:33.056Z,100729.02
2022-12-11T21:03:48.024Z,100726.28
2022-12-11T21:06:01.453Z,100726.86
2022-12-11T21:08:15.187Z,100723.30
2022-12-11T21:10:28.795Z,100726.17
2022-12-11T21:12:42.130Z,100729.36
2022-12-11T21:14:55.806Z,100728.32
2022-12-11T21:17:09.317Z,100726.94
2022-12-11T21:19:24.471Z,100735.02
2022-12-11T21:21:40.959Z,100737.27
2022-12-11T21:23:54.562Z,100739.78
2022-12-11T21:26:08.319Z,100741.69
2022-12-11T21:28:22.021Z,100749.17
2022-12-11T21:30:35.438Z,100756.61
2022-12-11T21:32:48.982Z,100754.40
2022-12-11T21:35:02.403Z,100753.98
2022-12-11T21:37:15.730Z,100757.94
2022-12-11T21:39:29.833Z,100756.55
2022-12-11T21:41:44.828Z,100758.30
2022-12-11T21:46:33.609Z,100759.91
2022-12-11T21:48:47.368Z,100761.23
2022-12-11T21:51:07.557Z,100760.27
2022-12-11T21:53:20.737Z,100760.96
2022-12-11T21:55:34.009Z,100764.39
2022-12-11T21:57:47.334Z,100771.86
2022-12-11T22:00:00.599Z,100770.98
2022-12-11T22:02:14.432Z,100767.29
2022-12-11T22:04:27.805Z,100764.83
2022-12-11T22:06:43.222Z,100766.48
2022-12-11T22:08:56.641Z,100767.30
2022-12-11T22:11:10.085Z,100772.31
2022-12-11T22:13:23.678Z,100776.79
2022-12-11T22:15:36.872Z,100781.46
2022-12-11T22:17:50.029Z,100786.55
2022-12-11T22:20:03.192Z,100787.02
2022-12-11T22:22:16.802Z,100790.97
2022-12-11T22:24:29.999Z,100796.20
2022-12-11T22:26:43.642Z,100802.66
2022-12-11T22:28:57.437Z,100800.89
2022-12-11T22:31:13.021Z,100802.14
2022-12-11T22:33:26.343Z,100804.64
2022-12-11T22:35:39.472Z,100800.16
2022-12-11T22:37:53.121Z,100807.45
2022-12-11T22:40:06.826Z,100809.77
2022-12-11T22:42:20.444Z,100810.15
2022-12-11T22:44:33.725Z,100813.96
2022-12-11T22:46:50.309Z,100819.65
2022-12-11T22:49:04.554Z,100822.14
2022-12-11T22:51:18.192Z,100824.87
2022-12-11T22:53:31.619Z,100827.08
2022-12-11T22:55:46.303Z,100829.88
2022-12-11T22:57:59.664Z,100830.31
2022-12-11T23:00:16.221Z,100836.89
2022-12-11T23:02:29.618Z,100839.42
2022-12-11T23:04:42.939Z,100843.35
2022-12-11T23:06:56.173Z,100851.17
2022-12-11T23:09:09.679Z,100854.03
2022-12-11T23:11:26.033Z,100859.00
2022-12-11T23:13:39.311Z,100858.48
2022-12-11T23:15:54.296Z,100863.47
2022-12-11T23:18:08.262Z,100860.80
2022-12-11T23:20:21.580Z,100863.59
2022-12-11T23:22:35.097Z,100865.48
2022-12-11T23:24:48.438Z,100866.66
2022-12-11T23:27:01.601Z,100865.00
2022-12-11T23:29:15.151Z,100868.17
2022-12-11T23:31:29.644Z,100870.64
2022-12-11T23:33:43.044Z,100872.04
2022-12-11T23:35:56.404Z,100873.56
2022-12-11T23:38:09.634Z,100878.26
2022-12-11T23:40:23.009Z,100879.46
2022-12-11T23:42:36.692Z,100880.94
2022-12-11T23:44:49.950Z,100885.91
2022-12-11T23:47:03.167Z,100887.86
2022-12-11T23:49:16.461Z,100890.71
2022-12-11T23:51:31.028Z,100889.52
2022-12-11T23:53:44.361Z,100892.38
2022-12-11T23:55:58.023Z,100895.14
2022-12-11T23:58:11.831Z,100893.73
